Time;durP1;ratioP1;P1;durP2;ratioP2;P2;SDS_P1;SDS_P2;PMS_P1;PMS_P2;Temp;Humidity;BMP_temperature;BMP_pressure;BME280_temperature;BME280_humidity;BME280_pressure;Samples;Min_cycle;Max_cycle;Signal;HPM_P1;HPM_P2
2022/06/13 00:03:46;;;;;;;27.30;20.92;;;15.70;99.90;;;;;;10378386;28;20126;-88
2022/06/13 00:08:47;;;;;;;22.10;18.40;;;15.80;99.90;;;;;;10380136;28;20041;-90
2022/06/13 00:13:50;;;;;;;24.13;18.77;;;15.60;99.90;;;;;;10381828;28;20113;-85
2022/06/13 00:18:51;;;;;;;25.40;17.70;;;15.60;99.90;;;;;;10374234;28;20044;-85
2022/06/13 00:23:52;;;;;;;24.70;19.55;;;15.60;99.90;;;;;;10387036;28;20037;-84
2022/06/13 00:28:54;;;;;;;29.20;19.17;;;15.60;99.90;;;;;;10397403;28;20536;-88
2022/06/13 00:33:55;;;;;;;22.92;19.05;;;15.60;99.90;;;;;;10380696;28;20034;-90
2022/06/13 00:38:55;;;;;;;27.77;20.83;;;15.40;99.90;;;;;;10389429;28;20087;-86
2022/06/13 00:43:58;;;;;;;23.88;20.48;;;15.40;99.90;;;;;;10389503;28;20056;-90
2022/06/13 00:49:06;;;;;;;31.38;22.73;;;15.40;99.90;;;;;;10401882;28;20369;-86
2022/06/13 00:54:07;;;;;;;30.33;21.10;;;15.30;99.90;;;;;;10392574;28;20050;-86
2022/06/13 00:59:16;;;;;;;28.52;22.52;;;15.20;99.90;;;;;;10378811;28;20034;-85
2022/06/13 01:04:17;;;;;;;30.27;21.25;;;15.10;99.90;;;;;;10383636;28;20720;-87
2022/06/13 01:11:16;;;;;;;25.05;19.20;;;15.00;99.90;;;;;;10380910;28;20038;-86
2022/06/13 01:15:02;;;;;;;28.92;23.20;;;15.00;99.90;;;;;;10377772;28;20163;-89
2022/06/13 01:20:19;;;;;;;28.45;23.13;;;15.00;99.90;;;;;;10407793;28;20045;-87
2022/06/13 01:25:25;;;;;;;27.63;21.67;;;14.70;99.90;;;;;;10379364;28;20032;-86
2022/06/13 01:30:48;;;;;;;26.92;21.95;;;14.80;99.90;;;;;;10379235;28;20025;-86
2022/06/13 01:35:58;;;;;;;25.73;19.98;;;14.70;99.90;;;;;;10393945;28;20042;-85
2022/06/13 01:41:17;;;;;;;24.80;19.35;;;14.70;99.90;;;;;;10378279;28;20123;-89
2022/06/13 01:46:29;;;;;;;27.90;21.63;;;14.70;99.90;;;;;;10405122;28;20038;-85
2022/06/13 01:52:03;;;;;;;25.48;20.27;;;14.60;99.90;;;;;;10386865;28;20611;-83
2022/06/13 01:57:10;;;;;;;27.48;21.50;;;14.50;99.90;;;;;;10374750;28;20034;-87
2022/06/13 02:02:24;;;;;;;29.23;23.75;;;14.30;99.90;;;;;;10393926;28;20030;-83
2022/06/13 02:07:29;;;;;;;32.90;24.63;;;14.20;99.90;;;;;;10377320;28;20466;-88
2022/06/13 02:12:34;;;;;;;31.53;23.27;;;14.20;99.90;;;;;;10375850;28;20450;-84
2022/06/13 02:17:49;;;;;;;25.20;21.42;;;14.20;99.90;;;;;;10385047;28;20440;-84
2022/06/13 02:22:55;;;;;;;33.20;26.20;;;14.20;99.90;;;;;;10408466;28;20032;-84
2022/06/13 02:28:13;;;;;;;29.35;23.98;;;14.20;99.90;;;;;;10369702;28;20120;-86
2022/06/13 02:33:30;;;;;;;27.10;21.60;;;14.30;99.90;;;;;;10388093;28;20457;-88
2022/06/13 02:38:43;;;;;;;25.23;21.92;;;14.20;99.90;;;;;;10379525;28;20488;-83
2022/06/13 02:44:02;;;;;;;28.67;22.55;;;14.20;99.90;;;;;;10383987;28;20075;-86
2022/06/13 02:49:19;;;;;;;27.38;21.50;;;14.20;99.90;;;;;;10393618;28;20037;-83
2022/06/13 02:54:34;;;;;;;26.38;20.88;;;14.30;99.90;;;;;;10387352;28;20408;-85
2022/06/13 02:59:55;;;;;;;22.08;17.58;;;14.40;99.90;;;;;;10373977;28;20034;-85
2022/06/13 03:05:01;;;;;;;19.65;16.85;;;14.40;99.90;;;;;;10389197;28;20432;-89
2022/06/13 03:10:16;;;;;;;22.70;16.80;;;14.40;99.90;;;;;;10402664;28;20555;-84
2022/06/13 03:15:51;;;;;;;20.17;15.48;;;14.50;99.90;;;;;;10372448;28;20033;-84
2022/06/13 03:21:11;;;;;;;21.75;16.70;;;14.50;99.90;;;;;;10374703;28;20038;-88
2022/06/13 03:26:25;;;;;;;18.90;16.08;;;14.60;99.90;;;;;;10384552;28;20028;-83
2022/06/13 03:31:36;;;;;;;21.88;18.10;;;14.70;99.90;;;;;;10381464;28;20400;-86
2022/06/13 03:36:39;;;;;;;21.90;17.80;;;14.70;99.90;;;;;;10382076;28;20052;-85
2022/06/13 03:42:08;;;;;;;21.80;18.10;;;14.80;99.90;;;;;;10374997;28;20037;-89
2022/06/13 03:47:29;;;;;;;22.83;18.17;;;14.80;99.90;;;;;;10387276;28;20488;-85
2022/06/13 03:52:34;;;;;;;20.75;17.45;;;15.00;99.90;;;;;;10390059;28;20083;-84
2022/06/13 03:57:40;;;;;;;20.92;16.80;;;15.10;99.90;;;;;;10385681;28;20033;-85
2022/06/13 04:02:43;;;;;;;20.98;17.15;;;15.20;99.90;;;;;;10382662;28;20030;-83
2022/06/13 04:07:43;;;;;;;20.90;17.13;;;15.40;99.90;;;;;;10369286;28;20554;-83
2022/06/13 04:13:02;;;;;;;23.15;17.58;;;15.60;99.90;;;;;;10364470;28;20029;-84
2022/06/13 04:18:22;;;;;;;22.23;16.75;;;15.50;99.90;;;;;;10383588;28;20413;-84
2022/06/13 04:23:40;;;;;;;22.55;16.88;;;15.60;99.90;;;;;;10391702;28;20056;-84
2022/06/13 04:28:56;;;;;;;19.73;16.08;;;15.80;99.90;;;;;;10393206;28;20024;-86
2022/06/13 04:34:09;;;;;;;21.33;16.13;;;15.80;99.90;;;;;;10389077;28;20099;-82
2022/06/13 04:39:13;;;;;;;18.48;15.20;;;15.90;99.90;;;;;;10375826;28;20026;-85
2022/06/13 04:44:18;;;;;;;20.05;16.00;;;16.00;99.90;;;;;;10364055;28;20018;-86
2022/06/13 04:49:31;;;;;;;19.33;16.05;;;16.30;99.90;;;;;;10387674;28;20022;-84
2022/06/13 04:54:55;;;;;;;20.40;15.45;;;16.40;99.90;;;;;;10363053;28;20495;-84
2022/06/13 04:59:56;;;;;;;20.52;15.18;;;16.70;99.90;;;;;;10363781;28;20049;-84
2022/06/13 05:04:57;;;;;;;18.60;14.48;;;16.90;99.90;;;;;;10374432;28;20113;-84
2022/06/13 05:10:01;;;;;;;17.85;14.38;;;16.90;99.90;;;;;;10390042;28;20044;-84
2022/06/13 05:15:09;;;;;;;15.82;12.95;;;17.00;99.90;;;;;;10383639;28;20467;-84
2022/06/13 05:20:18;;;;;;;17.70;12.68;;;17.20;99.90;;;;;;10381670;28;20041;-84
2022/06/13 05:25:31;;;;;;;17.48;12.05;;;17.50;99.90;;;;;;10372234;28;20034;-84
2022/06/13 05:30:31;;;;;;;17.42;12.68;;;17.80;99.90;;;;;;10370949;28;20096;-84
2022/06/13 05:35:35;;;;;;;16.35;11.05;;;18.00;99.90;;;;;;10371163;28;20614;-84
2022/06/13 05:40:36;;;;;;;12.45;10.18;;;18.40;99.90;;;;;;10369542;28;20037;-83
2022/06/13 05:45:39;;;;;;;16.92;11.50;;;18.60;99.90;;;;;;10370668;28;20525;-86
2022/06/13 05:50:41;;;;;;;16.55;11.43;;;18.90;99.90;;;;;;10389099;28;20053;-84
2022/06/13 05:55:43;;;;;;;20.17;11.32;;;19.00;99.90;;;;;;10369776;28;20145;-85
2022/06/13 06:00:46;;;;;;;13.20;9.65;;;19.20;99.90;;;;;;10369246;28;20030;-83
2022/06/13 06:05:47;;;;;;;17.40;11.90;;;19.40;99.90;;;;;;10381755;28;20647;-84
2022/06/13 06:10:52;;;;;;;16.38;12.13;;;19.70;99.90;;;;;;10389661;28;20044;-84
2022/06/13 06:15:53;;;;;;;15.35;12.02;;;20.10;99.90;;;;;;10409647;28;20099;-84
2022/06/13 06:20:54;;;;;;;19.05;12.50;;;20.50;99.90;;;;;;10410236;28;20373;-83
2022/06/13 06:25:54;;;;;;;14.80;9.88;;;20.60;99.90;;;;;;10409431;28;20033;-84
2022/06/13 06:30:58;;;;;;;9.63;6.95;;;20.70;99.90;;;;;;10408284;28;20022;-84
2022/06/13 06:35:59;;;;;;;12.25;7.63;;;20.90;99.90;;;;;;10409290;28;20064;-84
2022/06/13 06:41:00;;;;;;;8.77;6.05;;;20.90;99.90;;;;;;10409048;28;20041;-86
2022/06/13 06:46:00;;;;;;;12.13;7.05;;;20.80;98.60;;;;;;10409144;28;20032;-82
2022/06/13 06:51:04;;;;;;;7.13;6.43;;;20.80;99.90;;;;;;10406919;28;20057;-82
2022/06/13 07:01:24;;;;;;;9.40;6.10;;;22.20;96.60;;;;;;10403903;28;20041;-85
2022/06/13 07:06:24;;;;;;;8.68;6.85;;;22.10;94.50;;;;;;10367548;28;20049;-84
2022/06/13 07:16:45;;;;;;;6.93;5.30;;;21.00;94.80;;;;;;10380661;28;20469;-86
2022/06/13 07:21:46;;;;;;;8.93;5.97;;;20.60;95.30;;;;;;10411324;28;20034;-82
2022/06/13 07:26:48;;;;;;;9.27;6.30;;;20.20;96.30;;;;;;10394390;28;20026;-84
2022/06/13 07:32:02;;;;;;;10.18;6.68;;;20.00;98.90;;;;;;10365931;28;20021;-82
2022/06/13 07:37:04;;;;;;;8.80;6.88;;;19.70;99.90;;;;;;10393455;28;20018;-84
2022/06/13 07:42:05;;;;;;;9.20;7.15;;;19.50;99.90;;;;;;10365215;28;20021;-84
2022/06/13 07:47:07;;;;;;;9.75;8.75;;;19.20;99.90;;;;;;10365678;28;20101;-85
2022/06/13 07:52:08;;;;;;;8.80;7.30;;;19.00;99.90;;;;;;10393398;28;20060;-85
2022/06/13 07:57:09;;;;;;;13.57;9.23;;;18.60;99.90;;;;;;10365731;28;20625;-87
2022/06/13 08:02:16;;;;;;;13.43;9.88;;;18.10;99.90;;;;;;10365331;28;20038;-87
2022/06/13 08:07:16;;;;;;;10.13;7.38;;;17.60;99.90;;;;;;10365132;28;20708;-86
2022/06/13 08:12:19;;;;;;;10.43;7.40;;;17.10;99.90;;;;;;10374185;28;20039;-86
2022/06/13 08:17:22;;;;;;;8.38;7.18;;;16.80;99.90;;;;;;10370401;28;20147;-84
2022/06/13 08:22:23;;;;;;;8.52;6.75;;;16.90;99.90;;;;;;10364567;28;20030;-87
2022/06/13 08:27:26;;;;;;;7.03;5.90;;;16.90;99.90;;;;;;10377110;28;20018;-85
2022/06/13 08:32:27;;;;;;;9.68;5.93;;;16.80;99.90;;;;;;10364836;28;20033;-85
2022/06/13 08:37:27;;;;;;;10.15;7.93;;;16.60;99.90;;;;;;10368517;28;20025;-85
2022/06/13 08:42:56;;;;;;;9.52;7.20;;;16.60;99.90;;;;;;10373560;28;20026;-85
2022/06/13 08:48:07;;;;;;;9.70;7.28;;;16.50;99.90;;;;;;10384225;28;20022;-84
2022/06/13 08:53:19;;;;;;;13.10;8.68;;;16.50;99.90;;;;;;10372190;28;20073;-84
2022/06/13 08:58:30;;;;;;;10.73;8.38;;;16.60;99.90;;;;;;10375285;28;20061;-84
2022/06/13 09:03:34;;;;;;;15.90;11.10;;;16.80;99.90;;;;;;10385832;28;20025;-85
2022/06/13 09:08:51;;;;;;;10.90;8.32;;;16.90;99.90;;;;;;10388466;28;20013;-85
2022/06/13 09:14:09;;;;;;;10.20;8.00;;;17.00;99.90;;;;;;10371721;28;20091;-84
2022/06/13 09:19:25;;;;;;;14.43;10.75;;;17.10;99.90;;;;;;10369695;28;20485;-84
2022/06/13 09:24:39;;;;;;;9.35;7.38;;;17.10;99.90;;;;;;10389328;28;20090;-85
2022/06/13 09:29:55;;;;;;;11.70;9.77;;;17.20;99.90;;;;;;10413348;28;20481;-85
2022/06/13 09:35:10;;;;;;;8.85;7.13;;;17.50;99.90;;;;;;10372159;28;20030;-85
2022/06/13 09:40:14;;;;;;;12.05;9.27;;;17.80;99.90;;;;;;10369893;28;20064;-85
2022/06/13 09:45:26;;;;;;;8.02;6.72;;;18.10;99.90;;;;;;10369770;28;20053;-85
2022/06/13 09:50:46;;;;;;;9.45;8.48;;;18.20;99.90;;;;;;10369292;28;20088;-84
2022/06/13 09:56:21;;;;;;;9.98;7.72;;;18.20;99.90;;;;;;10368786;28;20030;-85
2022/06/13 10:01:34;;;;;;;9.93;7.87;;;18.20;99.90;;;;;;10365428;28;20050;-84
2022/06/13 10:06:50;;;;;;;11.43;7.32;;;18.30;99.90;;;;;;10384737;28;20018;-85
2022/06/13 10:12:03;;;;;;;11.15;7.25;;;18.40;99.90;;;;;;10368968;28;20656;-86
2022/06/13 10:17:32;;;;;;;10.60;7.78;;;18.30;99.90;;;;;;10368700;28;20029;-86
2022/06/13 10:22:40;;;;;;;12.25;7.45;;;18.30;99.90;;;;;;10405902;28;20040;-84
2022/06/13 10:27:44;;;;;;;12.73;8.40;;;18.50;99.90;;;;;;10396593;28;20056;-84
2022/06/13 10:32:58;;;;;;;12.52;10.18;;;18.20;99.90;;;;;;10377709;28;20025;-85
2022/06/13 10:38:10;;;;;;;15.20;11.13;;;18.10;99.90;;;;;;10369292;28;20033;-83
2022/06/13 10:43:12;;;;;;;18.13;12.95;;;18.10;99.90;;;;;;10367585;28;20076;-84
2022/06/13 10:48:21;;;;;;;18.40;12.57;;;17.90;99.90;;;;;;10381012;28;20026;-84
2022/06/13 10:53:24;;;;;;;23.63;13.85;;;18.00;99.90;;;;;;10382368;28;20076;-84
2022/06/13 10:58:44;;;;;;;18.98;13.23;;;18.30;99.90;;;;;;10366861;28;20120;-83
2022/06/13 11:04:05;;;;;;;11.10;9.77;;;18.70;99.90;;;;;;10367049;28;20026;-86
2022/06/13 11:09:45;;;;;;;10.95;8.88;;;19.00;99.90;;;;;;10365861;28;20026;-85
2022/06/13 11:25:37;;;;;;;7.60;6.40;;;18.80;99.90;;;;;;10392074;28;20038;-84
2022/06/13 11:30:48;;;;;;;8.82;6.10;;;19.00;99.90;;;;;;10378939;28;20374;-84
2022/06/13 11:35:56;;;;;;;10.07;6.63;;;19.50;99.90;;;;;;10365313;28;20025;-84
2022/06/13 11:41:16;;;;;;;8.07;4.68;;;20.10;99.90;;;;;;10365034;28;20049;-82
2022/06/13 11:46:26;;;;;;;5.40;4.05;;;20.00;99.90;;;;;;10365687;28;20478;-84
2022/06/13 11:51:39;;;;;;;7.32;3.97;;;20.30;99.90;;;;;;10365200;28;20081;-83
2022/06/13 11:56:39;;;;;;;8.40;5.35;;;20.30;99.90;;;;;;10364882;28;20098;-85
2022/06/13 12:01:40;;;;;;;8.38;5.75;;;20.30;99.90;;;;;;10364730;28;20037;-85
2022/06/13 12:06:44;;;;;;;8.63;5.57;;;20.20;99.90;;;;;;10390856;28;20021;-84
2022/06/13 12:11:52;;;;;;;7.57;5.30;;;19.90;99.90;;;;;;10387174;28;20034;-85
2022/06/13 12:17:06;;;;;;;6.13;4.85;;;19.70;99.90;;;;;;10381070;28;20038;-83
2022/06/13 12:22:17;;;;;;;10.07;6.30;;;19.50;99.90;;;;;;10373025;28;20381;-86
2022/06/13 12:27:38;;;;;;;9.02;6.20;;;19.30;99.90;;;;;;10395446;28;20021;-83
2022/06/13 12:32:56;;;;;;;7.53;6.68;;;19.10;99.90;;;;;;10371977;28;20544;-83
2022/06/13 12:38:09;;;;;;;7.68;5.80;;;18.50;99.90;;;;;;10377519;28;20751;-82
2022/06/13 12:43:28;;;;;;;6.45;5.03;;;18.30;99.90;;;;;;10383336;28;20064;-82
2022/06/13 12:48:41;;;;;;;6.18;4.57;;;18.00;99.90;;;;;;10365519;28;20456;-83
2022/06/13 12:54:10;;;;;;;5.70;4.20;;;17.70;99.90;;;;;;10367994;28;20706;-83
2022/06/13 12:59:34;;;;;;;4.70;3.88;;;17.50;99.90;;;;;;10386144;28;20038;-84
2022/06/13 13:04:46;;;;;;;4.00;3.50;;;17.30;99.90;;;;;;10375574;28;20039;-83
2022/06/13 13:09:59;;;;;;;5.32;3.42;;;17.20;99.90;;;;;;10394973;28;20117;-86
2022/06/13 13:15:14;;;;;;;5.78;4.25;;;16.60;99.90;;;;;;10379990;28;20034;-83
2022/06/13 13:20:43;;;;;;;5.70;4.03;;;16.40;99.90;;;;;;10364856;28;20030;-85
2022/06/13 13:26:09;;;;;;;4.97;4.05;;;16.20;99.90;;;;;;10371652;28;20030;-85
2022/06/13 13:31:16;;;;;;;6.18;4.18;;;16.00;99.90;;;;;;10374929;28;20048;-84
2022/06/13 13:36:46;;;;;;;4.72;3.20;;;15.90;99.90;;;;;;10394431;28;20029;-83
2022/06/13 13:41:57;;;;;;;5.13;4.10;;;15.80;99.90;;;;;;10382238;28;20042;-84
2022/06/13 13:47:05;;;;;;;4.28;3.78;;;15.70;99.90;;;;;;10370360;28;20037;-83
2022/06/13 13:52:17;;;;;;;6.32;4.78;;;15.70;99.90;;;;;;10403203;28;20133;-85
2022/06/13 13:57:26;;;;;;;8.50;5.70;;;15.40;99.90;;;;;;10381190;28;20069;-87
2022/06/13 14:02:44;;;;;;;8.45;6.10;;;14.90;99.90;;;;;;10390367;28;20519;-88
2022/06/13 14:08:07;;;;;;;10.00;7.38;;;14.60;99.90;;;;;;10387993;28;20111;-86
2022/06/13 14:13:09;;;;;;;12.88;8.15;;;14.40;99.90;;;;;;10382621;28;20084;-86
2022/06/13 14:18:18;;;;;;;16.33;8.75;;;14.40;99.90;;;;;;10380874;28;20540;-85
2022/06/13 14:23:37;;;;;;;16.88;11.13;;;14.30;99.90;;;;;;10381751;28;20488;-84
2022/06/13 14:28:51;;;;;;;12.23;8.18;;;14.30;99.90;;;;;;10368165;28;20032;-85
2022/06/13 14:39:40;;;;;;;12.52;9.38;;;14.30;99.90;;;;;;10349349;28;20884;-85
2022/06/13 14:44:56;;;;;;;17.88;12.05;;;14.30;99.90;;;;;;10366801;28;20026;-86
2022/06/13 14:49:57;;;;;;;16.85;10.98;;;14.20;99.90;;;;;;10378996;28;20018;-85
2022/06/13 14:55:06;;;;;;;21.58;13.07;;;14.10;99.90;;;;;;10376980;28;20528;-83
2022/06/13 15:00:12;;;;;;;22.67;12.68;;;14.10;99.90;;;;;;10366561;28;20659;-85
2022/06/13 15:05:12;;;;;;;20.15;13.88;;;14.20;99.90;;;;;;10374880;28;20033;-83
2022/06/13 15:10:19;;;;;;;18.20;13.02;;;14.20;99.90;;;;;;10397417;28;20029;-83
2022/06/13 15:15:32;;;;;;;19.77;13.20;;;14.30;99.90;;;;;;10389117;28;20029;-85
2022/06/13 15:20:43;;;;;;;22.02;14.93;;;14.30;99.90;;;;;;10395927;28;20128;-84
2022/06/13 15:25:46;;;;;;;21.65;15.13;;;14.40;99.90;;;;;;10389269;28;20014;-84
2022/06/13 15:31:08;;;;;;;31.08;20.15;;;14.50;99.90;;;;;;10393527;28;20024;-84
2022/06/13 15:36:14;;;;;;;20.20;13.95;;;14.70;99.90;;;;;;10378075;28;20021;-84
2022/06/13 15:41:39;;;;;;;23.08;16.40;;;14.80;99.90;;;;;;10374192;28;20091;-84
2022/06/13 15:47:13;;;;;;;30.47;19.60;;;14.90;99.90;;;;;;10379466;28;20029;-86
2022/06/13 15:52:15;;;;;;;20.38;15.27;;;15.00;99.90;;;;;;10341361;28;20384;-84
2022/06/13 15:57:19;;;;;;;28.45;17.65;;;15.00;99.90;;;;;;10378610;28;20028;-84
2022/06/13 16:02:24;;;;;;;26.08;17.33;;;15.10;99.90;;;;;;10384646;28;20057;-84
2022/06/13 16:07:27;;;;;;;;;;;15.20;99.90;;;;;;10394932;28;20104;-84
2022/06/13 16:12:34;;;;;;;22.98;17.65;;;15.30;99.90;;;;;;10385472;28;20295;-86
2022/06/13 16:17:40;;;;;;;21.50;14.40;;;15.40;99.90;;;;;;10384378;28;20017;-83
2022/06/13 16:22:44;;;;;;;24.73;16.13;;;15.50;99.90;;;;;;10384690;28;20030;-83
2022/06/13 16:27:46;;;;;;;15.90;11.30;;;15.70;99.90;;;;;;10375433;28;20018;-84
2022/06/13 16:32:52;;;;;;;27.92;17.58;;;15.70;99.90;;;;;;10364959;28;20111;-86
2022/06/13 16:38:02;;;;;;;16.98;12.13;;;15.70;99.90;;;;;;10373485;28;20053;-83
2022/06/13 16:43:04;;;;;;;16.52;12.43;;;15.90;99.90;;;;;;10384061;28;20022;-83
2022/06/13 16:48:15;;;;;;;19.23;13.35;;;15.90;99.90;;;;;;10380648;28;20424;-83
2022/06/13 16:53:16;;;;;;;18.00;11.68;;;15.90;99.90;;;;;;10375756;28;20516;-82
2022/06/13 16:58:30;;;;;;;21.10;13.77;;;15.80;99.90;;;;;;10384724;28;20069;-84
2022/06/13 17:03:59;;;;;;;22.02;14.40;;;15.80;99.90;;;;;;10382318;28;20416;-83
2022/06/13 17:09:09;;;;;;;20.23;13.43;;;15.80;99.90;;;;;;10381494;28;20634;-83
2022/06/13 17:14:10;;;;;;;21.08;13.75;;;15.80;99.90;;;;;;10380030;28;20632;-80
2022/06/13 17:19:14;;;;;;;25.63;16.77;;;15.70;99.90;;;;;;10389520;28;20086;-83
2022/06/13 17:24:15;;;;;;;19.85;14.15;;;15.70;99.90;;;;;;10397724;28;20029;-84
2022/06/13 17:34:38;;;;;;;23.27;17.70;;;15.60;99.90;;;;;;10384357;28;20384;-90
2022/06/13 17:39:39;;;;;;;25.40;18.33;;;15.50;99.90;;;;;;10389868;28;20037;-89
2022/06/13 17:44:40;;;;;;;25.10;17.02;;;15.40;99.90;;;;;;10436104;28;20039;-89
2022/06/13 17:49:42;;;;;;;37.20;23.20;;;15.40;99.90;;;;;;10412956;28;20049;-85
2022/06/13 17:54:43;;;;;;;31.58;21.90;;;15.30;99.90;;;;;;10398413;28;20458;-89
2022/06/13 17:59:44;;;;;;;34.75;21.70;;;15.30;99.90;;;;;;10384991;28;20042;-85
2022/06/13 18:04:47;;;;;;;41.05;26.38;;;15.30;99.90;;;;;;10391503;28;20080;-85
2022/06/13 18:09:49;;;;;;;30.98;22.85;;;15.30;99.90;;;;;;10387706;28;20125;-85
2022/06/13 18:14:50;;;;;;;32.92;21.05;;;15.30;99.90;;;;;;10392219;28;20098;-85
2022/06/13 18:19:52;;;;;;;29.58;21.25;;;15.30;99.90;;;;;;10385849;28;20048;-87
2022/06/13 18:24:54;;;;;;;35.92;22.73;;;15.30;99.90;;;;;;10390267;28;20036;-85
2022/06/13 18:29:56;;;;;;;38.72;23.42;;;15.30;99.90;;;;;;10390662;28;20029;-83
2022/06/13 18:34:56;;;;;;;30.52;22.88;;;15.20;99.90;;;;;;10391387;28;20044;-87
2022/06/13 18:39:57;;;;;;;40.33;25.15;;;15.10;99.90;;;;;;10382378;28;20033;-85
2022/06/13 18:44:58;;;;;;;36.97;24.83;;;15.00;99.90;;;;;;10399903;28;20053;-82
2022/06/13 18:49:59;;;;;;;6.50;4.68;;;14.90;99.90;;;;;;10391077;28;20040;-81
2022/06/13 18:55:00;;;;;;;5.22;2.38;;;14.80;99.90;;;;;;10394079;28;20584;-82
2022/06/13 19:00:01;;;;;;;10.57;2.25;;;13.90;99.90;;;;;;10374762;28;20473;-86
2022/06/13 19:05:02;;;;;;;8.93;3.47;;;12.90;99.90;;;;;;10408283;28;20029;-85
2022/06/13 19:10:04;;;;;;;9.00;3.65;;;12.00;99.90;;;;;;10375324;28;20494;-86
2022/06/13 19:15:09;;;;;;;12.15;5.00;;;11.70;99.90;;;;;;10379171;28;20030;-84
2022/06/13 19:20:14;;;;;;;17.35;7.07;;;11.60;99.90;;;;;;10385263;28;20069;-84
2022/06/13 19:25:15;;;;;;;15.57;5.87;;;11.50;99.90;;;;;;10385610;28;20022;-84
2022/06/13 19:30:18;;;;;;;31.23;11.10;;;11.40;99.90;;;;;;10367006;28;20546;-85
2022/06/13 19:35:24;;;;;;;23.67;8.77;;;11.50;99.90;;;;;;10385489;28;20049;-84
2022/06/13 19:40:26;;;;;;;47.50;16.58;;;11.40;99.90;;;;;;10385315;28;20029;-86
2022/06/13 19:45:28;;;;;;;27.80;11.40;;;11.60;99.90;;;;;;10369315;28;20025;-88
2022/06/13 19:50:31;;;;;;;28.08;11.35;;;11.70;99.90;;;;;;10398578;28;20451;-84
2022/06/13 19:55:37;;;;;;;431.52;70.03;;;11.60;99.90;;;;;;10388911;28;20462;-83
2022/06/13 20:00:41;;;;;;;47.78;15.15;;;11.60;99.90;;;;;;10392287;28;20057;-83
2022/06/13 20:11:18;;;;;;;487.60;74.40;;;11.60;99.90;;;;;;10383598;28;20045;-84
2022/06/13 20:16:19;;;;;;;;;;;11.50;99.90;;;;;;10391400;28;20018;-83
2022/06/13 20:21:20;;;;;;;144.10;24.08;;;11.30;99.90;;;;;;10368506;28;19924;-84
2022/06/13 20:26:21;;;;;;;30.35;11.05;;;11.10;99.90;;;;;;10374897;28;20079;-84
2022/06/13 20:31:22;;;;;;;695.33;112.25;;;11.00;99.90;;;;;;10391400;28;20021;-84
2022/06/13 20:36:25;;;;;;;63.42;18.45;;;10.80;99.90;;;;;;10383974;28;20055;-84
2022/06/13 20:41:26;;;;;;;236.15;41.08;;;10.70;99.90;;;;;;10389053;28;20137;-84
2022/06/13 20:46:27;;;;;;;44.97;15.55;;;10.60;99.90;;;;;;10394110;28;20021;-83
2022/06/13 20:51:27;;;;;;;121.15;27.23;;;10.60;99.90;;;;;;10411416;28;20509;-84
2022/06/13 20:56:28;;;;;;;112.53;26.38;;;10.50;99.90;;;;;;10400093;28;20053;-83
2022/06/13 21:01:29;;;;;;;642.05;97.97;;;10.50;99.90;;;;;;10397569;28;20037;-84
2022/06/13 21:06:32;;;;;;;166.25;37.05;;;10.40;99.90;;;;;;10385705;28;20241;-84
2022/06/13 21:11:33;;;;;;;94.80;22.30;;;10.40;99.90;;;;;;10381851;28;20084;-84
2022/06/13 21:16:35;;;;;;;825.65;122.07;;;10.20;99.90;;;;;;10388508;28;20021;-84
2022/06/13 21:21:36;;;;;;;51.70;18.63;;;10.10;99.90;;;;;;10386970;28;20120;-84
2022/06/13 21:26:38;;;;;;;81.50;23.13;;;10.00;99.90;;;;;;10392938;28;20025;-84
2022/06/13 21:31:41;;;;;;;149.27;26.63;;;10.00;99.90;;;;;;10414702;23;20132;-84
2022/06/13 21:36:42;;;;;;;460.83;68.70;;;10.10;99.90;;;;;;10375893;28;20657;-83
2022/06/13 21:41:44;;;;;;;251.30;49.80;;;9.90;99.90;;;;;;10392521;28;20048;-83
2022/06/13 21:46:45;;;;;;;123.70;30.53;;;9.80;99.90;;;;;;10420710;28;20067;-83
2022/06/13 21:51:46;;;;;;;188.33;37.83;;;9.80;99.90;;;;;;10399532;28;20052;-83
2022/06/13 21:56:47;;;;;;;50.07;18.83;;;9.80;99.90;;;;;;10385083;28;20071;-84
2022/06/13 22:01:48;;;;;;;78.63;24.70;;;9.80;99.90;;;;;;10391282;28;20061;-83
2022/06/13 22:06:49;;;;;;;59.40;24.25;;;9.80;99.90;;;;;;10379157;28;20442;-85
2022/06/13 22:11:49;;;;;;;53.03;21.90;;;9.80;99.90;;;;;;10376169;28;20469;-85
2022/06/13 22:16:50;;;;;;;72.70;28.50;;;9.90;99.90;;;;;;10385259;28;20546;-83
2022/06/13 22:21:50;;;;;;;94.63;30.83;;;9.90;99.90;;;;;;10401475;28;20112;-85
2022/06/13 22:26:51;;;;;;;124.32;34.50;;;9.90;99.90;;;;;;10374180;28;20034;-85
2022/06/13 22:31:52;;;;;;;73.97;29.97;;;9.90;99.90;;;;;;10372568;28;20473;-83
2022/06/13 22:36:52;;;;;;;146.40;40.55;;;9.90;99.90;;;;;;10373143;28;20458;-85
2022/06/13 22:41:53;;;;;;;281.50;58.85;;;10.00;99.90;;;;;;10379000;28;20029;-85
2022/06/13 22:52:15;;;;;;;116.45;36.38;;;10.10;99.90;;;;;;10389464;28;20034;-84
2022/06/13 22:57:16;;;;;;;87.88;27.70;;;10.30;99.90;;;;;;10376343;28;20041;-85
2022/06/13 23:02:18;;;;;;;120.47;32.95;;;10.20;99.90;;;;;;10375280;28;20752;-84
2022/06/13 23:07:21;;;;;;;120.25;31.08;;;10.20;99.90;;;;;;10372196;28;20029;-84
2022/06/13 23:12:22;;;;;;;78.73;25.97;;;10.00;99.90;;;;;;10385503;28;20568;-83
2022/06/13 23:17:23;;;;;;;128.10;31.80;;;9.80;99.90;;;;;;10394608;28;20129;-83
2022/06/13 23:22:23;;;;;;;97.47;31.17;;;9.60;99.90;;;;;;10377938;28;20389;-82
2022/06/13 23:27:24;;;;;;;157.57;47.27;;;9.50;99.90;;;;;;10377129;28;20476;-84
2022/06/13 23:32:26;;;;;;;244.47;68.53;;;9.40;99.90;;;;;;10386287;28;20107;-83
2022/06/13 23:37:26;;;;;;;191.30;64.73;;;9.50;99.90;;;;;;10369294;28;20030;-83
2022/06/13 23:42:27;;;;;;;220.00;78.63;;;9.80;99.90;;;;;;10387179;28;20033;-83
2022/06/13 23:47:28;;;;;;;205.63;71.70;;;10.20;99.90;;;;;;10384938;28;20107;-83
2022/06/13 23:52:29;;;;;;;214.35;74.65;;;10.60;99.90;;;;;;10399916;28;20100;-83
2022/06/13 23:57:30;;;;;;;212.30;72.47;;;10.70;99.90;;;;;;10386060;28;20372;-83
